Time;durP1;ratioP1;P1;durP2;ratioP2;P2;SDS_P1;SDS_P2;PMS_P1;PMS_P2;Temp;Humidity;BMP_temperature;BMP_pressure;BME280_temperature;BME280_humidity;BME280_pressure;Samples;Min_cycle;Max_cycle;Signal;HPM_P1;HPM_P2
2021/05/23 00:00:25;;;;;;;15.95;5.13;;;;;;;;;;5025201;28;20465;-81
2021/05/23 00:02:51;;;;;;;11.13;5.10;;;;;;;;;;5008831;28;20032;-81
2021/05/23 00:05:17;;;;;;;12.90;5.40;;;;;;;;;;5008616;28;20030;-81
2021/05/23 00:07:47;;;;;;;16.13;6.63;;;;;;;;;;5009592;28;20460;-80
2021/05/23 00:10:13;;;;;;;12.10;4.88;;;;;;;;;;5010086;28;20034;-80
2021/05/23 00:12:38;;;;;;;12.45;4.80;;;;;;;;;;5009825;28;20026;-81
2021/05/23 00:15:05;;;;;;;10.55;4.93;;;;;;;;;;5009288;28;20026;-81
2021/05/23 00:17:30;;;;;;;20.17;5.32;;;;;;;;;;5009234;28;20022;-81
2021/05/23 00:19:55;;;;;;;10.77;5.50;;;;;;;;;;5026768;28;20024;-81
2021/05/23 00:22:20;;;;;;;13.40;4.82;;;;;;;;;;5011295;28;20022;-81
2021/05/23 00:24:45;;;;;;;10.07;5.13;;;;;;;;;;5011127;28;20116;-81
2021/05/23 00:27:11;;;;;;;9.68;4.60;;;;;;;;;;5012621;28;20036;-81
2021/05/23 00:29:36;;;;;;;14.20;5.90;;;;;;;;;;5020833;28;20033;-81
2021/05/23 00:32:02;;;;;;;15.73;5.57;;;;;;;;;;5011911;28;20071;-81
2021/05/23 00:34:27;;;;;;;17.25;5.78;;;;;;;;;;5011101;28;20113;-80
2021/05/23 00:36:54;;;;;;;11.23;5.60;;;;;;;;;;5009698;28;20025;-80
2021/05/23 00:39:19;;;;;;;14.32;4.13;;;;;;;;;;5026305;28;20022;-81
2021/05/23 00:41:44;;;;;;;13.20;4.90;;;;;;;;;;5009804;28;20536;-81
2021/05/23 00:44:09;;;;;;;12.07;4.80;;;;;;;;;;5013111;28;20029;-81
2021/05/23 00:46:35;;;;;;;10.50;4.90;;;;;;;;;;5016327;28;20370;-81
2021/05/23 00:49:00;;;;;;;13.13;5.47;;;;;;;;;;5026176;28;20842;-81
2021/05/23 00:51:25;;;;;;;11.23;5.40;;;;;;;;;;5009339;28;20026;-81
2021/05/23 00:53:50;;;;;;;10.35;4.65;;;;;;;;;;5009424;28;20061;-81
2021/05/23 00:56:18;;;;;;;11.05;5.50;;;;;;;;;;5010743;28;20109;-81
2021/05/23 00:58:44;;;;;;;11.13;5.22;;;;;;;;;;5026436;28;20022;-81
2021/05/23 01:01:13;;;;;;;14.45;5.93;;;;;;;;;;5010529;28;20097;-81
2021/05/23 01:03:50;;;;;;;10.93;4.93;;;;;;;;;;5009238;28;20013;-81
2021/05/23 01:06:15;;;;;;;9.77;5.03;;;;;;;;;;5010462;28;20022;-81
2021/05/23 01:08:41;;;;;;;13.32;5.60;;;;;;;;;;5007911;28;20025;-81
2021/05/23 01:11:07;;;;;;;10.73;5.53;;;;;;;;;;5024415;28;20018;-81
2021/05/23 01:13:39;;;;;;;9.80;5.40;;;;;;;;;;5007845;28;20049;-80
2021/05/23 01:16:16;;;;;;;11.73;5.20;;;;;;;;;;5006773;28;20033;-80
2021/05/23 01:18:58;;;;;;;11.45;4.93;;;;;;;;;;5008836;28;20053;-81
2021/05/23 01:21:26;;;;;;;12.32;5.57;;;;;;;;;;5010387;28;20082;-80
2021/05/23 01:23:57;;;;;;;10.38;4.78;;;;;;;;;;5010501;28;20018;-80
2021/05/23 01:26:23;;;;;;;13.73;4.95;;;;;;;;;;5009059;28;20021;-81
2021/05/23 01:28:52;;;;;;;10.57;4.95;;;;;;;;;;5010319;28;20021;-81
2021/05/23 01:31:18;;;;;;;9.90;5.03;;;;;;;;;;5010189;28;20109;-81
2021/05/23 01:33:48;;;;;;;8.68;4.90;;;;;;;;;;5008873;28;20401;-80
2021/05/23 01:36:14;;;;;;;9.68;5.00;;;;;;;;;;5008832;28;20034;-81
2021/05/23 01:38:39;;;;;;;10.95;5.00;;;;;;;;;;5009997;28;20022;-81
2021/05/23 01:41:05;;;;;;;10.60;5.28;;;;;;;;;;5010085;28;20091;-81
2021/05/23 01:43:31;;;;;;;10.43;4.88;;;;;;;;;;5010206;28;20068;-81
2021/05/23 01:45:56;;;;;;;15.95;5.03;;;;;;;;;;5008862;28;20049;-81
2021/05/23 01:48:22;;;;;;;12.25;5.28;;;;;;;;;;5010386;28;20018;-80
2021/05/23 01:50:47;;;;;;;9.88;4.85;;;;;;;;;;5009874;28;20029;-81
2021/05/23 01:53:12;;;;;;;11.75;4.80;;;;;;;;;;5010139;28;20033;-82
2021/05/23 01:55:38;;;;;;;8.60;5.35;;;;;;;;;;5009994;28;20026;-80
2021/05/23 01:58:04;;;;;;;10.23;5.07;;;;;;;;;;5010177;28;20489;-81
2021/05/23 02:00:36;;;;;;;13.40;5.60;;;;;;;;;;5012336;28;20055;-81
2021/05/23 02:03:06;;;;;;;14.88;5.45;;;;;;;;;;5009913;28;20070;-81
2021/05/23 02:05:32;;;;;;;8.30;4.93;;;;;;;;;;5009870;28;20022;-81
2021/05/23 02:07:57;;;;;;;12.15;5.93;;;;;;;;;;5008634;28;20522;-80
2021/05/23 02:10:22;;;;;;;13.02;5.43;;;;;;;;;;5010082;28;20025;-80
2021/05/23 02:12:48;;;;;;;15.95;6.30;;;;;;;;;;5009950;28;20473;-81
2021/05/23 02:15:14;;;;;;;12.27;6.30;;;;;;;;;;5009665;28;20026;-81
2021/05/23 02:17:40;;;;;;;15.90;6.78;;;;;;;;;;5013180;28;20105;-81
2021/05/23 02:20:07;;;;;;;14.60;6.43;;;;;;;;;;5008320;28;20425;-80
2021/05/23 02:22:36;;;;;;;13.88;6.82;;;;;;;;;;5008430;28;20028;-80
2021/05/23 02:25:02;;;;;;;19.63;7.88;;;;;;;;;;5009722;28;20018;-80
2021/05/23 02:27:27;;;;;;;14.60;6.82;;;;;;;;;;5008564;28;20549;-81
2021/05/23 02:29:52;;;;;;;14.48;6.55;;;;;;;;;;5012756;28;20105;-80
2021/05/23 02:32:18;;;;;;;16.88;7.00;;;;;;;;;;5013155;28;20022;-80
2021/05/23 02:34:46;;;;;;;11.20;6.97;;;;;;;;;;5013323;28;20040;-81
2021/05/23 02:37:12;;;;;;;19.05;7.15;;;;;;;;;;5007991;28;20022;-81
2021/05/23 02:39:37;;;;;;;20.88;7.13;;;;;;;;;;5012740;28;20374;-81
2021/05/23 02:42:02;;;;;;;17.20;6.38;;;;;;;;;;5011408;28;20029;-81
2021/05/23 02:44:28;;;;;;;14.32;6.53;;;;;;;;;;5011666;28;20018;-81
2021/05/23 02:46:53;;;;;;;13.88;6.70;;;;;;;;;;5027732;28;20052;-80
2021/05/23 02:49:18;;;;;;;15.95;6.22;;;;;;;;;;5011640;28;20022;-81
2021/05/23 02:51:43;;;;;;;19.95;7.22;;;;;;;;;;5012896;28;20086;-81
2021/05/23 02:54:08;;;;;;;15.73;6.10;;;;;;;;;;5012375;28;20475;-80
2021/05/23 02:56:34;;;;;;;19.35;6.95;;;;;;;;;;5011552;28;20096;-80
2021/05/23 02:59:00;;;;;;;18.05;6.53;;;;;;;;;;5015256;28;20032;-80
2021/05/23 03:01:25;;;;;;;19.10;7.20;;;;;;;;;;5025634;28;20022;-80
2021/05/23 03:03:50;;;;;;;18.45;6.22;;;;;;;;;;5012573;28;20017;-81
2021/05/23 03:06:15;;;;;;;25.20;6.32;;;;;;;;;;5012388;28;20018;-80
2021/05/23 03:08:41;;;;;;;15.43;5.85;;;;;;;;;;5023080;28;20483;-80
2021/05/23 03:11:06;;;;;;;17.90;6.05;;;;;;;;;;5015209;28;20358;-80
2021/05/23 03:13:31;;;;;;;16.65;5.60;;;;;;;;;;5027766;28;20021;-81
2021/05/23 03:15:56;;;;;;;20.42;6.40;;;;;;;;;;5027923;28;20036;-80
2021/05/23 03:18:21;;;;;;;23.92;6.40;;;;;;;;;;5012247;28;20068;-81
2021/05/23 03:20:47;;;;;;;14.18;5.68;;;;;;;;;;5027499;28;20600;-80
2021/05/23 03:23:12;;;;;;;20.83;5.97;;;;;;;;;;5023438;28;20067;-80
2021/05/23 03:25:37;;;;;;;19.23;6.07;;;;;;;;;;5010918;28;20381;-81
2021/05/23 03:28:04;;;;;;;13.65;5.18;;;;;;;;;;5011018;28;20116;-81
2021/05/23 03:30:31;;;;;;;15.88;4.68;;;;;;;;;;5012159;28;20022;-81
2021/05/23 03:32:56;;;;;;;14.38;4.20;;;;;;;;;;5010977;28;20113;-81
2021/05/23 03:35:21;;;;;;;14.17;4.07;;;;;;;;;;5011904;28;20094;-81
2021/05/23 03:37:46;;;;;;;16.90;4.35;;;;;;;;;;5010716;28;20022;-81
2021/05/23 03:40:14;;;;;;;11.65;3.42;;;;;;;;;;5026831;28;20018;-81
2021/05/23 03:42:40;;;;;;;10.98;3.05;;;;;;;;;;5010720;28;20026;-81
2021/05/23 03:45:06;;;;;;;10.07;3.13;;;;;;;;;;5011806;28;20381;-81
2021/05/23 03:47:31;;;;;;;11.95;2.90;;;;;;;;;;5010999;28;20117;-81
2021/05/23 03:49:56;;;;;;;15.90;3.00;;;;;;;;;;5012073;28;20054;-81
2021/05/23 03:52:21;;;;;;;17.45;3.05;;;;;;;;;;5011788;28;20636;-80
2021/05/23 03:54:47;;;;;;;15.23;3.33;;;;;;;;;;5010716;28;20026;-81
2021/05/23 03:57:12;;;;;;;16.25;3.38;;;;;;;;;;5011677;28;20074;-81
2021/05/23 03:59:38;;;;;;;9.50;2.47;;;;;;;;;;5011594;28;20029;-81
2021/05/23 04:02:03;;;;;;;9.45;2.80;;;;;;;;;;5018823;28;20036;-82
2021/05/23 04:04:44;;;;;;;12.98;3.80;;;;;;;;;;5014593;28;20579;-81
2021/05/23 04:07:09;;;;;;;13.23;3.05;;;;;;;;;;5027000;28;20104;-81
2021/05/23 04:09:35;;;;;;;7.65;3.03;;;;;;;;;;5010372;28;20437;-81
2021/05/23 04:12:00;;;;;;;11.65;3.72;;;;;;;;;;5011673;28;20059;-81
2021/05/23 04:14:26;;;;;;;11.30;3.15;;;;;;;;;;5010334;28;20026;-81
2021/05/23 04:16:51;;;;;;;14.45;3.58;;;;;;;;;;5011526;28;20022;-80
2021/05/23 04:19:16;;;;;;;12.43;2.80;;;;;;;;;;5026439;28;20465;-81
2021/05/23 04:21:41;;;;;;;11.65;3.30;;;;;;;;;;5010063;28;20018;-81
2021/05/23 04:24:07;;;;;;;12.63;3.15;;;;;;;;;;5026561;28;20071;-81
2021/05/23 04:26:32;;;;;;;14.82;3.42;;;;;;;;;;5021202;28;20648;-81
2021/05/23 04:28:57;;;;;;;10.90;3.53;;;;;;;;;;5022782;28;20018;-81
2021/05/23 04:31:22;;;;;;;18.08;3.55;;;;;;;;;;5009892;28;20030;-80
2021/05/23 04:33:47;;;;;;;14.48;3.05;;;;;;;;;;5011353;28;20517;-81
2021/05/23 04:36:12;;;;;;;13.88;3.08;;;;;;;;;;5011063;28;20022;-81
2021/05/23 04:38:38;;;;;;;14.52;3.03;;;;;;;;;;5011031;28;20393;-81
2021/05/23 04:41:03;;;;;;;11.52;3.00;;;;;;;;;;5026237;28;20014;-80
2021/05/23 04:43:28;;;;;;;24.10;4.80;;;;;;;;;;5012941;28;20017;-80
2021/05/23 04:45:53;;;;;;;20.48;3.45;;;;;;;;;;5010930;28;20013;-80
2021/05/23 04:48:18;;;;;;;20.98;3.70;;;;;;;;;;5026326;28;20029;-80
2021/05/23 04:50:43;;;;;;;11.98;2.75;;;;;;;;;;5025266;28;20549;-81
2021/05/23 04:53:09;;;;;;;8.50;2.47;;;;;;;;;;5026025;28;20109;-80
2021/05/23 04:55:34;;;;;;;18.15;3.28;;;;;;;;;;5010659;28;20017;-80
2021/05/23 04:58:00;;;;;;;21.95;3.60;;;;;;;;;;5010778;28;20014;-80
2021/05/23 05:00:25;;;;;;;20.60;3.28;;;;;;;;;;5010676;28;20025;-80
2021/05/23 05:02:50;;;;;;;20.27;3.50;;;;;;;;;;5009107;28;20017;-81
2021/05/23 05:05:16;;;;;;;15.63;2.53;;;;;;;;;;5010725;28;20473;-81
2021/05/23 05:07:42;;;;;;;15.75;3.22;;;;;;;;;;5010489;28;20033;-81
2021/05/23 05:10:09;;;;;;;14.43;2.65;;;;;;;;;;5025798;28;20392;-80
2021/05/23 05:12:34;;;;;;;12.40;2.70;;;;;;;;;;5010640;28;20032;-80
2021/05/23 05:14:59;;;;;;;16.52;2.75;;;;;;;;;;5036081;28;20121;-80
2021/05/23 05:17:24;;;;;;;15.65;2.28;;;;;;;;;;5010507;28;20457;-80
2021/05/23 05:19:50;;;;;;;13.80;2.08;;;;;;;;;;5009008;28;20017;-81
2021/05/23 05:22:15;;;;;;;17.63;2.70;;;;;;;;;;5025678;28;20028;-80
2021/05/23 05:24:40;;;;;;;14.63;2.30;;;;;;;;;;5010272;28;20094;-80
2021/05/23 05:27:05;;;;;;;17.52;2.65;;;;;;;;;;5010415;28;20057;-80
2021/05/23 05:29:30;;;;;;;15.48;2.80;;;;;;;;;;5010706;28;20022;-80
2021/05/23 05:31:56;;;;;;;15.13;1.85;;;;;;;;;;5010264;28;20037;-80
2021/05/23 05:34:21;;;;;;;13.05;1.67;;;;;;;;;;5010362;28;20037;-80
2021/05/23 05:36:46;;;;;;;17.08;2.78;;;;;;;;;;5008812;28;20530;-81
2021/05/23 05:39:11;;;;;;;15.90;2.40;;;;;;;;;;5010132;28;20010;-80
2021/05/23 05:41:37;;;;;;;16.63;2.25;;;;;;;;;;5010001;28;20376;-81
2021/05/23 05:44:02;;;;;;;6.30;1.83;;;;;;;;;;5008143;28;20022;-81
2021/05/23 05:46:27;;;;;;;9.52;2.00;;;;;;;;;;5007938;28;20022;-80
2021/05/23 05:48:52;;;;;;;12.73;2.17;;;;;;;;;;5008279;28;20042;-80
2021/05/23 05:51:17;;;;;;;13.13;2.30;;;;;;;;;;5007293;28;20090;-80
2021/05/23 05:53:43;;;;;;;17.70;2.13;;;;;;;;;;5006743;28;20025;-80
2021/05/23 05:56:08;;;;;;;10.10;2.00;;;;;;;;;;5023172;28;20029;-80
2021/05/23 05:58:33;;;;;;;15.55;2.00;;;;;;;;;;5008681;28;20071;-80
2021/05/23 06:00:58;;;;;;;13.40;2.10;;;;;;;;;;5007799;28;20018;-81
2021/05/23 06:03:24;;;;;;;8.47;2.00;;;;;;;;;;5011068;28;20362;-81
2021/05/23 06:05:49;;;;;;;22.30;3.30;;;;;;;;;;5011722;28;20139;-81
2021/05/23 06:08:14;;;;;;;9.88;1.60;;;;;;;;;;5010720;28;20118;-81
2021/05/23 06:10:40;;;;;;;18.07;2.23;;;;;;;;;;5014237;28;20399;-81
2021/05/23 06:13:05;;;;;;;14.90;2.08;;;;;;;;;;5013455;28;20477;-80
2021/05/23 06:15:32;;;;;;;9.18;1.90;;;;;;;;;;5012019;28;20526;-80
2021/05/23 06:17:57;;;;;;;15.05;1.83;;;;;;;;;;5011804;28;20061;-80
2021/05/23 06:20:22;;;;;;;8.45;1.90;;;;;;;;;;5028637;28;20072;-80
2021/05/23 06:22:48;;;;;;;11.90;2.50;;;;;;;;;;5013485;28;20109;-80
2021/05/23 06:25:13;;;;;;;11.52;2.08;;;;;;;;;;5011942;28;20022;-80
2021/05/23 06:27:38;;;;;;;18.20;2.05;;;;;;;;;;5013211;28;20049;-80
2021/05/23 06:30:04;;;;;;;20.60;2.20;;;;;;;;;;5013007;28;20014;-80
2021/05/23 06:32:30;;;;;;;17.13;2.55;;;;;;;;;;5006166;28;20459;-80
2021/05/23 06:34:55;;;;;;;13.30;2.47;;;;;;;;;;5011886;28;20101;-80
2021/05/23 06:37:20;;;;;;;20.15;2.35;;;;;;;;;;5045368;28;20114;-81
2021/05/23 06:39:45;;;;;;;9.85;1.92;;;;;;;;;;5071645;28;20017;-81
2021/05/23 06:42:11;;;;;;;14.52;2.42;;;;;;;;;;5026801;28;20022;-81
2021/05/23 06:44:36;;;;;;;12.32;1.33;;;;;;;;;;5012785;28;20025;-81
2021/05/23 06:47:01;;;;;;;14.52;1.83;;;;;;;;;;5022991;28;20026;-81
2021/05/23 06:49:26;;;;;;;17.35;2.38;;;;;;;;;;5011455;28;20058;-81
2021/05/23 06:51:53;;;;;;;10.77;1.80;;;;;;;;;;5014169;28;20152;-80
2021/05/23 06:54:18;;;;;;;10.27;1.80;;;;;;;;;;5000330;28;20062;-81
2021/05/23 06:56:44;;;;;;;14.65;1.92;;;;;;;;;;5020492;28;20076;-80
2021/05/23 06:59:09;;;;;;;14.60;1.88;;;;;;;;;;5017077;28;20369;-80
2021/05/23 07:01:34;;;;;;;12.35;2.40;;;;;;;;;;5067864;27;20465;-81
2021/05/23 07:04:00;;;;;;;7.82;1.45;;;;;;;;;;5012480;28;20071;-80
2021/05/23 07:06:25;;;;;;;8.63;1.58;;;;;;;;;;5014288;28;20033;-80
2021/05/23 07:08:50;;;;;;;10.60;1.33;;;;;;;;;;5027741;28;20014;-80
2021/05/23 07:11:15;;;;;;;8.55;1.67;;;;;;;;;;5012941;28;20381;-81
2021/05/23 07:13:41;;;;;;;12.07;1.80;;;;;;;;;;5011866;28;20018;-81
2021/05/23 07:16:06;;;;;;;10.43;1.70;;;;;;;;;;5048423;27;20545;-81
2021/05/23 07:18:31;;;;;;;7.60;1.50;;;;;;;;;;5025017;28;20034;-81
2021/05/23 07:20:59;;;;;;;7.82;1.30;;;;;;;;;;5054265;28;20023;-81
2021/05/23 07:23:24;;;;;;;12.30;1.88;;;;;;;;;;5035914;28;20103;-81
2021/05/23 07:25:49;;;;;;;9.55;1.27;;;;;;;;;;5061874;28;20494;-81
2021/05/23 07:28:15;;;;;;;11.48;1.52;;;;;;;;;;5018615;28;20488;-81
2021/05/23 07:30:40;;;;;;;13.73;1.80;;;;;;;;;;5071114;28;20090;-81
2021/05/23 07:33:05;;;;;;;9.48;1.27;;;;;;;;;;5027295;28;20061;-81
2021/05/23 07:35:30;;;;;;;8.52;1.60;;;;;;;;;;5021029;28;20038;-81
2021/05/23 07:37:55;;;;;;;9.07;1.40;;;;;;;;;;5058549;28;20020;-81
2021/05/23 07:40:21;;;;;;;7.65;1.40;;;;;;;;;;5072150;28;20438;-81
2021/05/23 07:42:47;;;;;;;10.32;1.50;;;;;;;;;;5072077;28;20027;-80
2021/05/23 07:45:12;;;;;;;14.10;2.05;;;;;;;;;;5015617;28;20079;-81
2021/05/23 07:47:38;;;;;;;9.05;1.50;;;;;;;;;;5031931;28;20081;-82
2021/05/23 07:50:03;;;;;;;9.43;1.58;;;;;;;;;;5058427;28;20026;-81
2021/05/23 07:52:29;;;;;;;12.43;1.70;;;;;;;;;;5010678;28;20017;-80
2021/05/23 07:54:54;;;;;;;11.40;1.90;;;;;;;;;;5037332;28;20022;-81
2021/05/23 07:57:19;;;;;;;9.30;1.48;;;;;;;;;;5043053;28;20073;-81
2021/05/23 07:59:45;;;;;;;13.90;1.48;;;;;;;;;;5033238;28;20430;-80
2021/05/23 08:02:10;;;;;;;6.65;1.55;;;;;;;;;;5071553;27;20066;-81
2021/05/23 08:04:35;;;;;;;7.88;1.58;;;;;;;;;;5026676;28;20017;-81
2021/05/23 08:07:00;;;;;;;13.43;2.30;;;;;;;;;;5022674;28;20036;-81
2021/05/23 08:09:26;;;;;;;12.43;2.17;;;;;;;;;;5011585;28;20041;-80
2021/05/23 08:11:51;;;;;;;7.22;1.40;;;;;;;;;;5018488;28;20508;-80
2021/05/23 08:14:16;;;;;;;12.75;1.80;;;;;;;;;;5011701;28;20030;-81
2021/05/23 08:16:44;;;;;;;9.13;1.40;;;;;;;;;;5010123;28;20482;-80
2021/05/23 08:19:10;;;;;;;5.45;1.23;;;;;;;;;;5010345;28;20018;-81
2021/05/23 08:21:35;;;;;;;7.28;1.10;;;;;;;;;;5010158;28;20431;-80
2021/05/23 08:24:00;;;;;;;7.68;1.25;;;;;;;;;;5012461;28;20044;-80
2021/05/23 08:26:26;;;;;;;7.53;1.20;;;;;;;;;;5008995;28;20026;-79
2021/05/23 08:28:51;;;;;;;17.33;2.53;;;;;;;;;;5010509;28;20404;-80
2021/05/23 08:31:16;;;;;;;8.95;1.67;;;;;;;;;;5011586;28;20030;-80
2021/05/23 08:33:41;;;;;;;12.05;1.30;;;;;;;;;;5009967;28;20018;-80
2021/05/23 08:36:06;;;;;;;6.90;1.27;;;;;;;;;;5010147;28;20022;-80
2021/05/23 08:38:32;;;;;;;12.23;1.63;;;;;;;;;;5013458;28;20021;-80
2021/05/23 08:40:57;;;;;;;9.80;1.33;;;;;;;;;;5021786;28;20018;-80
2021/05/23 08:43:25;;;;;;;4.32;1.13;;;;;;;;;;5018548;28;20026;-80
2021/05/23 08:45:51;;;;;;;9.80;1.67;;;;;;;;;;5009958;28;20025;-81
2021/05/23 08:48:17;;;;;;;13.80;1.30;;;;;;;;;;5009803;28;20026;-80
2021/05/23 08:50:42;;;;;;;9.15;1.33;;;;;;;;;;5010985;28;20030;-81
2021/05/23 08:53:07;;;;;;;8.00;1.10;;;;;;;;;;5011126;28;20091;-80
2021/05/23 08:55:33;;;;;;;8.10;1.35;;;;;;;;;;5010978;28;20025;-80
2021/05/23 08:57:59;;;;;;;13.95;1.23;;;;;;;;;;5010771;28;20018;-81
2021/05/23 09:00:24;;;;;;;4.68;1.35;;;;;;;;;;5010928;28;20362;-81
2021/05/23 09:02:56;;;;;;;8.60;1.63;;;;;;;;;;5015807;28;20022;-80
2021/05/23 09:05:35;;;;;;;7.30;1.13;;;;;;;;;;5010933;28;20026;-80
2021/05/23 09:08:01;;;;;;;9.55;1.33;;;;;;;;;;5010868;28;20380;-80
2021/05/23 09:10:28;;;;;;;7.75;1.27;;;;;;;;;;5009798;28;20074;-80
2021/05/23 09:12:53;;;;;;;5.57;1.40;;;;;;;;;;5010736;28;20030;-80
2021/05/23 09:15:19;;;;;;;7.28;1.33;;;;;;;;;;5009507;28;20022;-80
2021/05/23 09:17:45;;;;;;;9.95;2.25;;;;;;;;;;5010622;28;20131;-80
2021/05/23 09:20:15;;;;;;;9.20;1.20;;;;;;;;;;5010663;28;20025;-80
2021/05/23 09:22:41;;;;;;;11.82;1.80;;;;;;;;;;5014568;28;20017;-81
2021/05/23 09:25:08;;;;;;;8.02;1.42;;;;;;;;;;5024764;28;20043;-80
2021/05/23 09:27:33;;;;;;;11.85;1.55;;;;;;;;;;5010698;28;20421;-80
2021/05/23 09:30:12;;;;;;;7.43;1.45;;;;;;;;;;5056791;27;20101;-81
2021/05/23 09:32:38;;;;;;;7.80;1.63;;;;;;;;;;5018725;28;20510;-80
2021/05/23 09:35:04;;;;;;;9.13;1.33;;;;;;;;;;5028598;28;20051;-80
2021/05/23 09:37:29;;;;;;;6.53;0.95;;;;;;;;;;5029136;28;20026;-80
2021/05/23 09:39:54;;;;;;;10.25;1.42;;;;;;;;;;5020473;28;20110;-81
2021/05/23 09:42:20;;;;;;;15.10;1.90;;;;;;;;;;5040577;28;20030;-81
2021/05/23 09:44:45;;;;;;;13.05;1.80;;;;;;;;;;5046232;28;20020;-81
2021/05/23 09:47:12;;;;;;;10.05;1.65;;;;;;;;;;5009704;28;20018;-80
2021/05/23 09:49:47;;;;;;;8.73;1.23;;;;;;;;;;5015070;28;20378;-81
2021/05/23 09:52:13;;;;;;;8.93;1.70;;;;;;;;;;5044936;28;20018;-81
2021/05/23 09:55:04;;;;;;;7.53;1.33;;;;;;;;;;5035411;28;20022;-80
2021/05/23 09:57:29;;;;;;;10.10;1.40;;;;;;;;;;5029278;28;20362;-80
2021/05/23 10:00:07;;;;;;;5.38;0.93;;;;;;;;;;5059827;28;20018;-81
2021/05/23 10:02:32;;;;;;;7.32;1.17;;;;;;;;;;5073746;28;20071;-81
2021/05/23 10:05:05;;;;;;;10.50;1.98;;;;;;;;;;5029640;28;20030;-81
2021/05/23 10:07:34;;;;;;;8.00;1.23;;;;;;;;;;5064032;28;20039;-81
2021/05/23 10:10:00;;;;;;;6.03;1.10;;;;;;;;;;5008183;28;20036;-81
2021/05/23 10:12:25;;;;;;;5.63;1.15;;;;;;;;;;5012307;28;20385;-80
2021/05/23 10:14:51;;;;;;;7.72;2.15;;;;;;;;;;5010077;28;20011;-80
2021/05/23 10:17:16;;;;;;;8.75;1.40;;;;;;;;;;5015503;28;20034;-80
2021/05/23 10:19:42;;;;;;;5.50;1.17;;;;;;;;;;5044220;28;20026;-80
2021/05/23 10:22:07;;;;;;;15.40;1.75;;;;;;;;;;5016635;28;20033;-81
2021/05/23 10:24:41;;;;;;;7.28;1.00;;;;;;;;;;5057159;28;20022;-80
2021/05/23 10:27:08;;;;;;;2.90;0.98;;;;;;;;;;5065313;28;20035;-80
2021/05/23 10:29:35;;;;;;;6.25;1.10;;;;;;;;;;5041697;28;20136;-81
2021/05/23 10:32:08;;;;;;;7.50;1.00;;;;;;;;;;5009495;28;20030;-80
2021/05/23 10:34:37;;;;;;;4.10;0.88;;;;;;;;;;5015450;28;20057;-80
2021/05/23 10:37:02;;;;;;;6.32;0.90;;;;;;;;;;5030322;28;20047;-80
2021/05/23 10:39:34;;;;;;;5.82;1.02;;;;;;;;;;5015574;28;20022;-80
2021/05/23 10:42:06;;;;;;;11.13;1.17;;;;;;;;;;5009968;28;20037;-80
2021/05/23 10:44:44;;;;;;;11.23;1.20;;;;;;;;;;5043879;28;20025;-80
2021/05/23 10:47:30;;;;;;;4.72;0.95;;;;;;;;;;5023640;28;20017;-81
2021/05/23 10:50:05;;;;;;;8.15;1.05;;;;;;;;;;5011192;28;20038;-81
2021/05/23 10:52:32;;;;;;;6.90;1.42;;;;;;;;;;4995179;28;20137;-81
2021/05/23 10:55:01;;;;;;;12.30;1.27;;;;;;;;;;5024017;28;20030;-81
2021/05/23 10:57:26;;;;;;;4.43;1.00;;;;;;;;;;5010648;28;20294;-81
2021/05/23 11:00:02;;;;;;;9.70;1.42;;;;;;;;;;5011301;28;20018;-81
2021/05/23 11:02:35;;;;;;;5.95;0.90;;;;;;;;;;5012629;28;20068;-81
2021/05/23 11:05:04;;;;;;;12.93;1.40;;;;;;;;;;5014408;28;20022;-81
2021/05/23 11:07:29;;;;;;;8.88;1.30;;;;;;;;;;5006548;28;20058;-81
2021/05/23 11:09:55;;;;;;;10.75;1.42;;;;;;;;;;5032334;28;20492;-81
2021/05/23 11:12:20;;;;;;;6.53;1.15;;;;;;;;;;5037119;28;20067;-81
2021/05/23 11:14:55;;;;;;;5.60;1.63;;;;;;;;;;5019261;28;20025;-82
2021/05/23 11:17:21;;;;;;;4.63;1.05;;;;;;;;;;5011068;28;20572;-82
2021/05/23 11:19:47;;;;;;;5.78;1.30;;;;;;;;;;5027989;28;20014;-81
2021/05/23 11:22:12;;;;;;;7.68;1.20;;;;;;;;;;5049628;28;20055;-81
2021/05/23 11:24:37;;;;;;;3.13;0.80;;;;;;;;;;5015798;28;20023;-81
2021/05/23 11:27:19;;;;;;;7.00;1.10;;;;;;;;;;5020697;28;20025;-81
2021/05/23 11:29:45;;;;;;;4.47;0.90;;;;;;;;;;5057832;28;20383;-81
2021/05/23 11:32:11;;;;;;;9.23;1.27;;;;;;;;;;5012280;28;20109;-81
2021/05/23 11:34:36;;;;;;;3.75;1.00;;;;;;;;;;5019670;28;20456;-81
2021/05/23 11:37:01;;;;;;;11.10;1.80;;;;;;;;;;5066436;28;20095;-81
2021/05/23 11:39:26;;;;;;;6.78;1.20;;;;;;;;;;5051469;28;20026;-82
2021/05/23 11:41:51;;;;;;;9.10;1.30;;;;;;;;;;5011740;28;20029;-82
2021/05/23 11:44:18;;;;;;;6.47;1.83;;;;;;;;;;5028616;28;20120;-82
2021/05/23 11:46:44;;;;;;;8.18;1.10;;;;;;;;;;5038775;28;20022;-81
2021/05/23 11:49:17;;;;;;;5.00;1.15;;;;;;;;;;5011935;28;20022;-81
2021/05/23 11:51:42;;;;;;;7.85;1.50;;;;;;;;;;5018406;28;20813;-81
2021/05/23 11:54:07;;;;;;;7.05;1.17;;;;;;;;;;5020493;28;20021;-81
2021/05/23 11:56:34;;;;;;;6.80;1.23;;;;;;;;;;5034629;28;20045;-81
2021/05/23 11:59:00;;;;;;;7.68;1.55;;;;;;;;;;5095518;27;20023;-81
2021/05/23 12:01:27;;;;;;;7.30;1.10;;;;;;;;;;5032970;28;20018;-82
2021/05/23 12:03:59;;;;;;;9.35;1.30;;;;;;;;;;5021272;28;20022;-82
2021/05/23 12:06:24;;;;;;;6.82;1.10;;;;;;;;;;5015944;28;20021;-81
2021/05/23 12:08:49;;;;;;;7.22;1.25;;;;;;;;;;5030301;28;20006;-82
2021/05/23 12:11:14;;;;;;;7.45;1.48;;;;;;;;;;5018429;28;20646;-82
2021/05/23 12:13:49;;;;;;;9.40;1.00;;;;;;;;;;5011566;28;20018;-82
2021/05/23 12:16:16;;;;;;;4.78;0.80;;;;;;;;;;5031891;28;20029;-81
2021/05/23 12:18:45;;;;;;;9.65;1.27;;;;;;;;;;5011421;28;20022;-82
2021/05/23 12:21:13;;;;;;;9.32;1.45;;;;;;;;;;5028325;28;20012;-82
2021/05/23 12:23:39;;;;;;;6.28;1.00;;;;;;;;;;5023286;28;20017;-82
2021/05/23 12:26:07;;;;;;;8.40;1.83;;;;;;;;;;5031689;28;20014;-81
2021/05/23 12:28:55;;;;;;;2.88;0.80;;;;;;;;;;5020371;28;20572;-82
2021/05/23 12:31:21;;;;;;;7.80;1.60;;;;;;;;;;4996421;28;20041;-82
2021/05/23 12:33:51;;;;;;;7.57;1.10;;;;;;;;;;5046712;28;20024;-83
2021/05/23 12:36:17;;;;;;;2.30;0.43;;;;;;;;;;5012405;28;20477;-82
2021/05/23 12:38:53;;;;;;;5.05;0.93;;;;;;;;;;5016662;28;20031;-82
2021/05/23 12:41:18;;;;;;;5.22;0.90;;;;;;;;;;5062315;28;20024;-82
2021/05/23 12:43:43;;;;;;;4.50;0.90;;;;;;;;;;5084568;28;20534;-82
2021/05/23 12:46:12;;;;;;;2.55;0.73;;;;;;;;;;5034809;28;20032;-82
2021/05/23 12:48:41;;;;;;;6.35;0.98;;;;;;;;;;5060239;28;20032;-82
2021/05/23 12:51:09;;;;;;;4.72;0.93;;;;;;;;;;5016891;28;20538;-82
2021/05/23 12:53:35;;;;;;;5.18;1.15;;;;;;;;;;5015909;28;20025;-82
2021/05/23 12:56:14;;;;;;;10.38;2.13;;;;;;;;;;5013915;28;20028;-82
2021/05/23 12:58:54;;;;;;;4.50;1.33;;;;;;;;;;5014641;28;20021;-82
2021/05/23 13:01:20;;;;;;;4.88;0.88;;;;;;;;;;5011613;28;20039;-82
2021/05/23 13:03:49;;;;;;;3.85;1.00;;;;;;;;;;5051210;28;20016;-82
2021/05/23 13:06:14;;;;;;;6.25;1.38;;;;;;;;;;5022164;28;20039;-82
2021/05/23 13:08:40;;;;;;;4.70;0.90;;;;;;;;;;5019310;28;20026;-82
2021/05/23 13:11:15;;;;;;;3.20;1.00;;;;;;;;;;5063938;28;20031;-82
2021/05/23 13:13:41;;;;;;;4.05;1.10;;;;;;;;;;5012454;28;20061;-82
2021/05/23 13:16:06;;;;;;;5.50;1.27;;;;;;;;;;5026857;28;20059;-82
2021/05/23 13:18:31;;;;;;;3.92;1.25;;;;;;;;;;5023696;28;20034;-83
2021/05/23 13:21:07;;;;;;;5.28;1.02;;;;;;;;;;5054005;28;20018;-82
2021/05/23 13:23:32;;;;;;;2.05;0.88;;;;;;;;;;5009837;28;20026;-82
2021/05/23 13:25:57;;;;;;;5.85;1.05;;;;;;;;;;5033841;28;20025;-83
2021/05/23 13:28:22;;;;;;;8.20;1.10;;;;;;;;;;5039195;28;20020;-82
2021/05/23 13:30:48;;;;;;;7.53;1.00;;;;;;;;;;5013002;28;20025;-82
2021/05/23 13:33:13;;;;;;;4.13;0.80;;;;;;;;;;5005232;28;20163;-82
2021/05/23 13:35:38;;;;;;;4.60;1.30;;;;;;;;;;5022804;28;20358;-82
2021/05/23 13:38:04;;;;;;;5.28;0.90;;;;;;;;;;5009073;28;20026;-82
2021/05/23 13:40:29;;;;;;;4.97;0.80;;;;;;;;;;5025891;28;20018;-82
2021/05/23 13:42:54;;;;;;;4.82;0.80;;;;;;;;;;5010585;28;20022;-82
2021/05/23 13:45:19;;;;;;;3.63;0.95;;;;;;;;;;5010426;28;20095;-82
2021/05/23 13:47:45;;;;;;;4.18;1.17;;;;;;;;;;5009312;28;20025;-82
2021/05/23 13:50:11;;;;;;;1.75;0.95;;;;;;;;;;5010077;28;20452;-82
2021/05/23 13:52:37;;;;;;;6.97;1.67;;;;;;;;;;5013035;28;20100;-82
2021/05/23 13:55:03;;;;;;;2.65;1.20;;;;;;;;;;5053063;28;20023;-82
2021/05/23 13:57:28;;;;;;;5.65;1.17;;;;;;;;;;5039498;28;20026;-82
2021/05/23 13:59:53;;;;;;;4.25;1.20;;;;;;;;;;5050465;28;20015;-82
2021/05/23 14:02:18;;;;;;;4.93;1.15;;;;;;;;;;5042631;28;20025;-83
2021/05/23 14:04:44;;;;;;;4.82;1.05;;;;;;;;;;5008553;28;20034;-83
2021/05/23 14:07:09;;;;;;;3.50;0.90;;;;;;;;;;5010157;28;20101;-82
2021/05/23 14:09:34;;;;;;;3.90;0.90;;;;;;;;;;5010019;28;20022;-82
2021/05/23 14:12:00;;;;;;;2.72;0.80;;;;;;;;;;5010748;28;20048;-82
2021/05/23 14:14:25;;;;;;;2.13;0.90;;;;;;;;;;5016474;28;20022;-82
2021/05/23 14:16:50;;;;;;;5.88;1.27;;;;;;;;;;5025120;28;20030;-83
2021/05/23 14:19:15;;;;;;;5.00;1.10;;;;;;;;;;5035463;28;20207;-83
2021/05/23 14:21:41;;;;;;;6.68;0.90;;;;;;;;;;5010058;28;20638;-82
2021/05/23 14:24:06;;;;;;;4.03;0.93;;;;;;;;;;5019125;28;20540;-82
2021/05/23 14:26:31;;;;;;;3.00;0.98;;;;;;;;;;5013274;28;20370;-82
2021/05/23 14:28:56;;;;;;;2.97;1.10;;;;;;;;;;5012145;28;20492;-82
2021/05/23 14:31:22;;;;;;;3.35;0.90;;;;;;;;;;5013154;28;20026;-82